sensor_id;sensor_type;location;lat;lon;timestamp;P1;durP1;ratioP1;P2;durP2;ratioP2
26277;SDS011;14000;52.056;8.510;2023-03-01T00:01:52;23.90;;;12.67;;
26277;SDS011;14000;52.056;8.510;2023-03-01T00:04:17;26.93;;;12.97;;
26277;SDS011;14000;52.056;8.510;2023-03-01T00:06:43;25.00;;;12.50;;
26277;SDS011;14000;52.056;8.510;2023-03-01T00:09:11;23.67;;;12.75;;
26277;SDS011;14000;52.056;8.510;2023-03-01T00:11:37;24.13;;;12.82;;
26277;SDS011;14000;52.056;8.510;2023-03-01T00:14:03;22.13;;;12.73;;
26277;SDS011;14000;52.056;8.510;2023-03-01T00:16:33;28.23;;;13.20;;
26277;SDS011;14000;52.056;8.510;2023-03-01T00:19:00;25.13;;;13.10;;
26277;SDS011;14000;52.056;8.510;2023-03-01T00:21:26;27.33;;;14.10;;
26277;SDS011;14000;52.056;8.510;2023-03-01T00:23:52;26.80;;;13.50;;
26277;SDS011;14000;52.056;8.510;2023-03-01T00:26:19;25.50;;;14.10;;
26277;SDS011;14000;52.056;8.510;2023-03-01T00:28:46;22.77;;;12.52;;
26277;SDS011;14000;52.056;8.510;2023-03-01T00:31:13;27.60;;;13.30;;
26277;SDS011;14000;52.056;8.510;2023-03-01T00:33:41;25.42;;;12.68;;
26277;SDS011;14000;52.056;8.510;2023-03-01T00:36:07;24.10;;;12.70;;
26277;SDS011;14000;52.056;8.510;2023-03-01T00:38:35;24.98;;;14.15;;
26277;SDS011;14000;52.056;8.510;2023-03-01T00:41:08;24.25;;;13.80;;
26277;SDS011;14000;52.056;8.510;2023-03-01T00:43:35;28.38;;;13.93;;
26277;SDS011;14000;52.056;8.510;2023-03-01T00:46:05;24.83;;;13.65;;
26277;SDS011;14000;52.056;8.510;2023-03-01T00:48:33;27.13;;;13.50;;
26277;SDS011;14000;52.056;8.510;2023-03-01T00:51:04;26.02;;;14.00;;
26277;SDS011;14000;52.056;8.510;2023-03-01T00:53:30;26.63;;;13.25;;
26277;SDS011;14000;52.056;8.510;2023-03-01T00:55:57;28.27;;;14.38;;
26277;SDS011;14000;52.056;8.510;2023-03-01T00:58:23;23.65;;;13.32;;
26277;SDS011;14000;52.056;8.510;2023-03-01T01:00:48;25.93;;;14.27;;
26277;SDS011;14000;52.056;8.510;2023-03-01T01:03:14;25.13;;;14.00;;
26277;SDS011;14000;52.056;8.510;2023-03-01T01:05:39;26.07;;;12.77;;
26277;SDS011;14000;52.056;8.510;2023-03-01T01:08:05;28.87;;;14.07;;
26277;SDS011;14000;52.056;8.510;2023-03-01T01:10:33;25.37;;;14.17;;
26277;SDS011;14000;52.056;8.510;2023-03-01T01:12:59;26.40;;;14.05;;
26277;SDS011;14000;52.056;8.510;2023-03-01T01:15:25;27.60;;;14.70;;
26277;SDS011;14000;52.056;8.510;2023-03-01T01:17:50;27.40;;;14.23;;
26277;SDS011;14000;52.056;8.510;2023-03-01T01:20:16;27.27;;;13.90;;
26277;SDS011;14000;52.056;8.510;2023-03-01T01:22:42;28.27;;;13.97;;
26277;SDS011;14000;52.056;8.510;2023-03-01T01:25:07;26.43;;;14.27;;
26277;SDS011;14000;52.056;8.510;2023-03-01T01:27:33;25.02;;;12.93;;
26277;SDS011;14000;52.056;8.510;2023-03-01T01:29:59;21.07;;;12.53;;
26277;SDS011;14000;52.056;8.510;2023-03-01T01:32:25;27.17;;;13.53;;
26277;SDS011;14000;52.056;8.510;2023-03-01T01:34:50;24.57;;;12.83;;
26277;SDS011;14000;52.056;8.510;2023-03-01T01:37:16;24.73;;;13.70;;
26277;SDS011;14000;52.056;8.510;2023-03-01T01:39:41;26.63;;;13.60;;
26277;SDS011;14000;52.056;8.510;2023-03-01T01:42:12;23.17;;;12.67;;
26277;SDS011;14000;52.056;8.510;2023-03-01T01:44:42;25.58;;;13.98;;
26277;SDS011;14000;52.056;8.510;2023-03-01T01:47:12;25.30;;;13.85;;
26277;SDS011;14000;52.056;8.510;2023-03-01T01:49:42;25.17;;;13.20;;
26277;SDS011;14000;52.056;8.510;2023-03-01T01:54:49;25.67;;;13.73;;
26277;SDS011;14000;52.056;8.510;2023-03-01T01:57:43;26.23;;;14.57;;
26277;SDS011;14000;52.056;8.510;2023-03-01T02:00:13;29.15;;;15.88;;
26277;SDS011;14000;52.056;8.510;2023-03-01T02:02:41;30.30;;;15.68;;
26277;SDS011;14000;52.056;8.510;2023-03-01T02:05:12;35.33;;;16.45;;
26277;SDS011;14000;52.056;8.510;2023-03-01T02:07:44;28.17;;;15.18;;
26277;SDS011;14000;52.056;8.510;2023-03-01T02:10:11;30.83;;;15.32;;
26277;SDS011;14000;52.056;8.510;2023-03-01T02:12:37;30.40;;;15.60;;
26277;SDS011;14000;52.056;8.510;2023-03-01T02:15:04;27.48;;;14.55;;
26277;SDS011;14000;52.056;8.510;2023-03-01T02:17:30;28.40;;;14.13;;
26277;SDS011;14000;52.056;8.510;2023-03-01T02:20:15;34.03;;;15.00;;
26277;SDS011;14000;52.056;8.510;2023-03-01T02:22:43;28.73;;;13.65;;
26277;SDS011;14000;52.056;8.510;2023-03-01T02:30:15;28.95;;;14.13;;
26277;SDS011;14000;52.056;8.510;2023-03-01T02:32:42;29.23;;;14.27;;
26277;SDS011;14000;52.056;8.510;2023-03-01T02:35:09;24.47;;;13.40;;
26277;SDS011;14000;52.056;8.510;2023-03-01T02:37:38;26.38;;;13.18;;
26277;SDS011;14000;52.056;8.510;2023-03-01T02:40:06;24.95;;;12.90;;
26277;SDS011;14000;52.056;8.510;2023-03-01T02:42:41;25.88;;;12.98;;
26277;SDS011;14000;52.056;8.510;2023-03-01T02:45:17;26.98;;;14.15;;
26277;SDS011;14000;52.056;8.510;2023-03-01T02:47:42;25.23;;;12.73;;
26277;SDS011;14000;52.056;8.510;2023-03-01T02:50:14;22.50;;;12.97;;
26277;SDS011;14000;52.056;8.510;2023-03-01T02:52:55;27.17;;;13.50;;
26277;SDS011;14000;52.056;8.510;2023-03-01T02:55:33;26.70;;;12.55;;
26277;SDS011;14000;52.056;8.510;2023-03-01T02:57:58;26.57;;;12.97;;
26277;SDS011;14000;52.056;8.510;2023-03-01T03:00:28;26.13;;;13.05;;
26277;SDS011;14000;52.056;8.510;2023-03-01T03:03:00;23.33;;;11.95;;
26277;SDS011;14000;52.056;8.510;2023-03-01T03:05:27;25.57;;;13.47;;
26277;SDS011;14000;52.056;8.510;2023-03-01T03:07:54;22.35;;;12.40;;
26277;SDS011;14000;52.056;8.510;2023-03-01T03:10:22;23.20;;;12.63;;
26277;SDS011;14000;52.056;8.510;2023-03-01T03:12:55;22.40;;;11.90;;
26277;SDS011;14000;52.056;8.510;2023-03-01T03:15:22;23.05;;;12.30;;
26277;SDS011;14000;52.056;8.510;2023-03-01T03:17:49;24.80;;;12.95;;
26277;SDS011;14000;52.056;8.510;2023-03-01T03:20:16;24.30;;;12.25;;
26277;SDS011;14000;52.056;8.510;2023-03-01T03:22:44;23.90;;;11.60;;
26277;SDS011;14000;52.056;8.510;2023-03-01T03:25:11;23.27;;;12.27;;
26277;SDS011;14000;52.056;8.510;2023-03-01T03:27:37;24.45;;;12.43;;
26277;SDS011;14000;52.056;8.510;2023-03-01T03:30:05;24.75;;;13.02;;
26277;SDS011;14000;52.056;8.510;2023-03-01T03:32:34;25.73;;;12.52;;
26277;SDS011;14000;52.056;8.510;2023-03-01T03:35:01;22.02;;;12.32;;
26277;SDS011;14000;52.056;8.510;2023-03-01T03:37:27;23.25;;;12.45;;
26277;SDS011;14000;52.056;8.510;2023-03-01T03:40:11;23.55;;;12.27;;
26277;SDS011;14000;52.056;8.510;2023-03-01T03:42:40;24.35;;;12.68;;
26277;SDS011;14000;52.056;8.510;2023-03-01T03:45:06;25.83;;;12.37;;
26277;SDS011;14000;52.056;8.510;2023-03-01T03:47:32;23.67;;;13.30;;
26277;SDS011;14000;52.056;8.510;2023-03-01T03:49:57;23.27;;;12.73;;
26277;SDS011;14000;52.056;8.510;2023-03-01T03:52:23;24.80;;;11.60;;
26277;SDS011;14000;52.056;8.510;2023-03-01T03:54:48;26.17;;;12.90;;
26277;SDS011;14000;52.056;8.510;2023-03-01T03:57:14;23.00;;;12.47;;
26277;SDS011;14000;52.056;8.510;2023-03-01T03:59:40;22.87;;;12.13;;
26277;SDS011;14000;52.056;8.510;2023-03-01T04:02:05;24.37;;;12.97;;
26277;SDS011;14000;52.056;8.510;2023-03-01T04:04:33;25.73;;;13.18;;
26277;SDS011;14000;52.056;8.510;2023-03-01T04:06:59;26.10;;;14.07;;
26277;SDS011;14000;52.056;8.510;2023-03-01T04:09:25;23.03;;;12.77;;
26277;SDS011;14000;52.056;8.510;2023-03-01T04:11:50;25.77;;;13.47;;
26277;SDS011;14000;52.056;8.510;2023-03-01T04:14:16;24.97;;;13.87;;
26277;SDS011;14000;52.056;8.510;2023-03-01T04:16:42;24.67;;;13.47;;
26277;SDS011;14000;52.056;8.510;2023-03-01T04:19:07;23.20;;;13.57;;
26277;SDS011;14000;52.056;8.510;2023-03-01T04:21:34;26.05;;;14.20;;
26277;SDS011;14000;52.056;8.510;2023-03-01T04:24:02;24.70;;;13.02;;
26277;SDS011;14000;52.056;8.510;2023-03-01T04:26:28;24.00;;;12.23;;
26277;SDS011;14000;52.056;8.510;2023-03-01T04:28:54;23.60;;;12.57;;
26277;SDS011;14000;52.056;8.510;2023-03-01T04:31:20;23.77;;;12.50;;
26277;SDS011;14000;52.056;8.510;2023-03-01T04:33:47;24.67;;;13.18;;
26277;SDS011;14000;52.056;8.510;2023-03-01T04:36:16;23.75;;;12.40;;
26277;SDS011;14000;52.056;8.510;2023-03-01T04:38:44;27.48;;;13.93;;
26277;SDS011;14000;52.056;8.510;2023-03-01T04:41:18;28.48;;;13.68;;
26277;SDS011;14000;52.056;8.510;2023-03-01T04:43:45;23.98;;;12.65;;
26277;SDS011;14000;52.056;8.510;2023-03-01T04:46:12;25.00;;;12.77;;
26277;SDS011;14000;52.056;8.510;2023-03-01T04:48:39;24.50;;;12.80;;
26277;SDS011;14000;52.056;8.510;2023-03-01T04:51:07;26.50;;;13.32;;
26277;SDS011;14000;52.056;8.510;2023-03-01T04:53:33;24.17;;;13.13;;
26277;SDS011;14000;52.056;8.510;2023-03-01T04:56:01;28.88;;;13.50;;
26277;SDS011;14000;52.056;8.510;2023-03-01T04:58:29;28.02;;;13.38;;
26277;SDS011;14000;52.056;8.510;2023-03-01T05:00:54;27.03;;;14.23;;
26277;SDS011;14000;52.056;8.510;2023-03-01T05:03:21;31.70;;;15.88;;
26277;SDS011;14000;52.056;8.510;2023-03-01T05:05:47;30.80;;;15.95;;
26277;SDS011;14000;52.056;8.510;2023-03-01T05:08:14;30.13;;;15.52;;
26277;SDS011;14000;52.056;8.510;2023-03-01T05:10:48;28.50;;;15.00;;
26277;SDS011;14000;52.056;8.510;2023-03-01T05:13:16;28.88;;;15.02;;
26277;SDS011;14000;52.056;8.510;2023-03-01T05:15:55;25.20;;;15.13;;
26277;SDS011;14000;52.056;8.510;2023-03-01T05:18:23;26.85;;;14.35;;
26277;SDS011;14000;52.056;8.510;2023-03-01T05:20:55;27.77;;;15.63;;
26277;SDS011;14000;52.056;8.510;2023-03-01T05:23:26;27.17;;;14.95;;
26277;SDS011;14000;52.056;8.510;2023-03-01T05:25:52;30.93;;;15.77;;
26277;SDS011;14000;52.056;8.510;2023-03-01T05:28:18;27.60;;;15.30;;
26277;SDS011;14000;52.056;8.510;2023-03-01T05:30:45;29.05;;;15.73;;
26277;SDS011;14000;52.056;8.510;2023-03-01T05:33:11;28.52;;;15.95;;
26277;SDS011;14000;52.056;8.510;2023-03-01T05:35:41;28.60;;;16.38;;
26277;SDS011;14000;52.056;8.510;2023-03-01T05:38:08;27.67;;;16.40;;
26277;SDS011;14000;52.056;8.510;2023-03-01T05:40:38;28.00;;;15.43;;
26277;SDS011;14000;52.056;8.510;2023-03-01T05:43:05;26.80;;;15.43;;
26277;SDS011;14000;52.056;8.510;2023-03-01T05:45:30;29.67;;;16.50;;
26277;SDS011;14000;52.056;8.510;2023-03-01T05:48:00;28.45;;;14.88;;
26277;SDS011;14000;52.056;8.510;2023-03-01T05:50:26;32.07;;;16.97;;
26277;SDS011;14000;52.056;8.510;2023-03-01T05:52:58;34.60;;;16.95;;
26277;SDS011;14000;52.056;8.510;2023-03-01T05:55:32;26.85;;;14.23;;
26277;SDS011;14000;52.056;8.510;2023-03-01T05:57:59;30.80;;;16.10;;
26277;SDS011;14000;52.056;8.510;2023-03-01T06:00:29;27.42;;;15.40;;
26277;SDS011;14000;52.056;8.510;2023-03-01T06:02:55;32.10;;;16.42;;
26277;SDS011;14000;52.056;8.510;2023-03-01T06:05:22;30.65;;;16.52;;
26277;SDS011;14000;52.056;8.510;2023-03-01T06:07:49;31.15;;;16.42;;
26277;SDS011;14000;52.056;8.510;2023-03-01T06:10:15;31.33;;;16.92;;
26277;SDS011;14000;52.056;8.510;2023-03-01T06:12:42;32.25;;;18.40;;
26277;SDS011;14000;52.056;8.510;2023-03-01T06:15:09;81.80;;;37.50;;
26277;SDS011;14000;52.056;8.510;2023-03-01T06:17:37;73.93;;;35.45;;
26277;SDS011;14000;52.056;8.510;2023-03-01T06:20:06;62.42;;;30.15;;
26277;SDS011;14000;52.056;8.510;2023-03-01T06:22:32;52.05;;;24.85;;
26277;SDS011;14000;52.056;8.510;2023-03-01T06:24:58;42.13;;;22.23;;
26277;SDS011;14000;52.056;8.510;2023-03-01T06:27:23;36.30;;;19.63;;
26277;SDS011;14000;52.056;8.510;2023-03-01T06:29:49;35.47;;;19.40;;
26277;SDS011;14000;52.056;8.510;2023-03-01T06:32:15;36.77;;;20.20;;
26277;SDS011;14000;52.056;8.510;2023-03-01T06:34:41;31.67;;;18.77;;
26277;SDS011;14000;52.056;8.510;2023-03-01T06:37:06;35.03;;;19.33;;
26277;SDS011;14000;52.056;8.510;2023-03-01T06:39:32;33.33;;;18.90;;
26277;SDS011;14000;52.056;8.510;2023-03-01T06:41:58;35.53;;;19.43;;
26277;SDS011;14000;52.056;8.510;2023-03-01T06:44:24;34.63;;;18.95;;
26277;SDS011;14000;52.056;8.510;2023-03-01T06:46:50;37.67;;;19.93;;
26277;SDS011;14000;52.056;8.510;2023-03-01T06:49:15;34.87;;;19.77;;
26277;SDS011;14000;52.056;8.510;2023-03-01T06:51:42;35.28;;;18.92;;
26277;SDS011;14000;52.056;8.510;2023-03-01T06:54:09;34.67;;;20.30;;
26277;SDS011;14000;52.056;8.510;2023-03-01T06:56:35;32.53;;;18.90;;
26277;SDS011;14000;52.056;8.510;2023-03-01T06:59:01;37.30;;;21.30;;
26277;SDS011;14000;52.056;8.510;2023-03-01T07:01:27;36.33;;;21.27;;
26277;SDS011;14000;52.056;8.510;2023-03-01T07:03:53;34.00;;;18.98;;
26277;SDS011;14000;52.056;8.510;2023-03-01T07:06:19;37.53;;;21.37;;
26277;SDS011;14000;52.056;8.510;2023-03-01T07:08:45;38.57;;;21.47;;
26277;SDS011;14000;52.056;8.510;2023-03-01T07:11:11;45.33;;;25.03;;
26277;SDS011;14000;52.056;8.510;2023-03-01T07:13:36;42.87;;;24.27;;
26277;SDS011;14000;52.056;8.510;2023-03-01T07:16:02;53.67;;;25.77;;
26277;SDS011;14000;52.056;8.510;2023-03-01T07:18:27;54.93;;;25.23;;
26277;SDS011;14000;52.056;8.510;2023-03-01T07:20:53;56.23;;;25.90;;
26277;SDS011;14000;52.056;8.510;2023-03-01T07:23:18;55.20;;;24.70;;
26277;SDS011;14000;52.056;8.510;2023-03-01T07:25:44;45.80;;;23.37;;
26277;SDS011;14000;52.056;8.510;2023-03-01T07:28:16;43.78;;;24.45;;
26277;SDS011;14000;52.056;8.510;2023-03-01T07:30:42;45.90;;;23.70;;
26277;SDS011;14000;52.056;8.510;2023-03-01T07:33:07;42.50;;;22.63;;
26277;SDS011;14000;52.056;8.510;2023-03-01T07:35:33;39.87;;;22.70;;
26277;SDS011;14000;52.056;8.510;2023-03-01T07:37:59;38.93;;;22.37;;
26277;SDS011;14000;52.056;8.510;2023-03-01T07:40:24;44.93;;;23.50;;
26277;SDS011;14000;52.056;8.510;2023-03-01T07:42:54;39.30;;;23.43;;
26277;SDS011;14000;52.056;8.510;2023-03-01T07:45:22;39.30;;;23.30;;
26277;SDS011;14000;52.056;8.510;2023-03-01T07:47:51;38.55;;;24.38;;
26277;SDS011;14000;52.056;8.510;2023-03-01T07:50:18;43.60;;;25.30;;
26277;SDS011;14000;52.056;8.510;2023-03-01T07:52:46;39.65;;;21.85;;
26277;SDS011;14000;52.056;8.510;2023-03-01T07:55:15;33.17;;;20.25;;
26277;SDS011;14000;52.056;8.510;2023-03-01T07:57:42;33.50;;;20.27;;
26277;SDS011;14000;52.056;8.510;2023-03-01T08:00:10;32.07;;;19.50;;
26277;SDS011;14000;52.056;8.510;2023-03-01T08:02:38;36.17;;;20.92;;
26277;SDS011;14000;52.056;8.510;2023-03-01T08:05:09;33.85;;;19.73;;
26277;SDS011;14000;52.056;8.510;2023-03-01T08:07:37;33.08;;;18.50;;
26277;SDS011;14000;52.056;8.510;2023-03-01T08:10:06;28.75;;;17.92;;
26277;SDS011;14000;52.056;8.510;2023-03-01T08:12:35;31.33;;;18.60;;
26277;SDS011;14000;52.056;8.510;2023-03-01T08:15:02;32.53;;;18.97;;
26277;SDS011;14000;52.056;8.510;2023-03-01T08:17:29;29.90;;;18.00;;
26277;SDS011;14000;52.056;8.510;2023-03-01T08:19:56;30.35;;;18.00;;
26277;SDS011;14000;52.056;8.510;2023-03-01T08:22:21;35.07;;;18.77;;
26277;SDS011;14000;52.056;8.510;2023-03-01T08:24:47;31.23;;;19.33;;
26277;SDS011;14000;52.056;8.510;2023-03-01T08:27:15;30.57;;;17.40;;
26277;SDS011;14000;52.056;8.510;2023-03-01T08:29:42;27.67;;;16.77;;
26277;SDS011;14000;52.056;8.510;2023-03-01T08:32:09;26.77;;;16.53;;
26277;SDS011;14000;52.056;8.510;2023-03-01T08:34:48;28.10;;;16.30;;
26277;SDS011;14000;52.056;8.510;2023-03-01T08:37:21;29.13;;;16.10;;
26277;SDS011;14000;52.056;8.510;2023-03-01T08:39:46;31.70;;;16.47;;
26277;SDS011;14000;52.056;8.510;2023-03-01T08:42:14;30.07;;;16.27;;
26277;SDS011;14000;52.056;8.510;2023-03-01T08:44:43;27.17;;;16.27;;
26277;SDS011;14000;52.056;8.510;2023-03-01T08:47:09;29.57;;;17.00;;
26277;SDS011;14000;52.056;8.510;2023-03-01T08:49:35;26.83;;;15.53;;
26277;SDS011;14000;52.056;8.510;2023-03-01T08:52:01;30.77;;;16.80;;
26277;SDS011;14000;52.056;8.510;2023-03-01T08:54:27;29.50;;;16.90;;
26277;SDS011;14000;52.056;8.510;2023-03-01T08:56:58;28.83;;;15.97;;
26277;SDS011;14000;52.056;8.510;2023-03-01T08:59:25;24.40;;;15.33;;
26277;SDS011;14000;52.056;8.510;2023-03-01T09:02:03;25.47;;;15.20;;
26277;SDS011;14000;52.056;8.510;2023-03-01T09:04:30;26.50;;;15.27;;
26277;SDS011;14000;52.056;8.510;2023-03-01T09:06:58;27.33;;;14.73;;
26277;SDS011;14000;52.056;8.510;2023-03-01T09:09:25;31.47;;;16.77;;
26277;SDS011;14000;52.056;8.510;2023-03-01T09:11:56;30.23;;;15.67;;
26277;SDS011;14000;52.056;8.510;2023-03-01T09:14:22;27.93;;;15.03;;
26277;SDS011;14000;52.056;8.510;2023-03-01T09:16:48;29.60;;;15.50;;
26277;SDS011;14000;52.056;8.510;2023-03-01T09:19:16;28.97;;;15.43;;
26277;SDS011;14000;52.056;8.510;2023-03-01T09:21:42;26.23;;;14.77;;
26277;SDS011;14000;52.056;8.510;2023-03-01T09:24:17;24.37;;;13.53;;
26277;SDS011;14000;52.056;8.510;2023-03-01T09:26:45;22.80;;;12.33;;
26277;SDS011;14000;52.056;8.510;2023-03-01T09:29:14;23.17;;;12.83;;
26277;SDS011;14000;52.056;8.510;2023-03-01T09:31:40;23.20;;;12.13;;
26277;SDS011;14000;52.056;8.510;2023-03-01T09:34:07;28.90;;;11.77;;
26277;SDS011;14000;52.056;8.510;2023-03-01T09:36:34;22.53;;;11.30;;
26277;SDS011;14000;52.056;8.510;2023-03-01T09:39:00;21.80;;;11.50;;
26277;SDS011;14000;52.056;8.510;2023-03-01T09:44:38;21.77;;;10.87;;
26277;SDS011;14000;52.056;8.510;2023-03-01T09:47:49;20.50;;;10.53;;
26277;SDS011;14000;52.056;8.510;2023-03-01T09:55:08;25.37;;;11.63;;
26277;SDS011;14000;52.056;8.510;2023-03-01T10:00:33;23.07;;;11.27;;
26277;SDS011;14000;52.056;8.510;2023-03-01T10:03:12;23.97;;;10.90;;
26277;SDS011;14000;52.056;8.510;2023-03-01T10:05:59;19.17;;;8.77;;
26277;SDS011;14000;52.056;8.510;2023-03-01T10:08:31;24.63;;;12.03;;
26277;SDS011;14000;52.056;8.510;2023-03-01T10:13:48;19.23;;;9.00;;
26277;SDS011;14000;52.056;8.510;2023-03-01T10:19:21;20.10;;;8.37;;
26277;SDS011;14000;52.056;8.510;2023-03-01T10:21:52;20.17;;;9.57;;
26277;SDS011;14000;52.056;8.510;2023-03-01T10:24:19;20.73;;;8.93;;
26277;SDS011;14000;52.056;8.510;2023-03-01T10:26:48;20.40;;;9.20;;
26277;SDS011;14000;52.056;8.510;2023-03-01T10:29:21;21.30;;;9.43;;
26277;SDS011;14000;52.056;8.510;2023-03-01T10:31:51;18.97;;;8.63;;
26277;SDS011;14000;52.056;8.510;2023-03-01T10:34:19;19.17;;;9.10;;
26277;SDS011;14000;52.056;8.510;2023-03-01T10:36:48;17.80;;;8.60;;
26277;SDS011;14000;52.056;8.510;2023-03-01T10:39:22;25.67;;;10.10;;
26277;SDS011;14000;52.056;8.510;2023-03-01T10:41:53;27.90;;;11.63;;
26277;SDS011;14000;52.056;8.510;2023-03-01T10:44:40;17.17;;;8.43;;
26277;SDS011;14000;52.056;8.510;2023-03-01T10:50:01;20.67;;;8.57;;
26277;SDS011;14000;52.056;8.510;2023-03-01T10:52:34;21.73;;;8.37;;
26277;SDS011;14000;52.056;8.510;2023-03-01T10:55:21;18.37;;;8.50;;
26277;SDS011;14000;52.056;8.510;2023-03-01T11:00:46;18.30;;;8.73;;
26277;SDS011;14000;52.056;8.510;2023-03-01T11:03:24;19.23;;;9.40;;
26277;SDS011;14000;52.056;8.510;2023-03-01T11:08:42;17.80;;;8.30;;
26277;SDS011;14000;52.056;8.510;2023-03-01T11:11:22;19.03;;;8.77;;
26277;SDS011;14000;52.056;8.510;2023-03-01T11:14:00;19.33;;;8.30;;
26277;SDS011;14000;52.056;8.510;2023-03-01T11:16:41;18.83;;;8.23;;
26277;SDS011;14000;52.056;8.510;2023-03-01T11:21:34;17.93;;;7.50;;
26277;SDS011;14000;52.056;8.510;2023-03-01T11:24:10;20.40;;;8.33;;
26277;SDS011;14000;52.056;8.510;2023-03-01T11:26:39;20.33;;;8.37;;
26277;SDS011;14000;52.056;8.510;2023-03-01T11:29:11;19.27;;;8.17;;
26277;SDS011;14000;52.056;8.510;2023-03-01T11:31:42;17.20;;;7.40;;
26277;SDS011;14000;52.056;8.510;2023-03-01T11:34:14;16.17;;;7.10;;
26277;SDS011;14000;52.056;8.510;2023-03-01T11:45:10;14.13;;;6.47;;
26277;SDS011;14000;52.056;8.510;2023-03-01T11:50:29;14.37;;;6.50;;
26277;SDS011;14000;52.056;8.510;2023-03-01T12:04:18;12.77;;;6.00;;
26277;SDS011;14000;52.056;8.510;2023-03-01T12:12:29;14.50;;;6.63;;
26277;SDS011;14000;52.056;8.510;2023-03-01T12:20:39;14.73;;;6.07;;
26277;SDS011;14000;52.056;8.510;2023-03-01T12:39:51;14.80;;;6.10;;
26277;SDS011;14000;52.056;8.510;2023-03-01T12:45:34;15.50;;;6.50;;
26277;SDS011;14000;52.056;8.510;2023-03-01T12:48:30;13.77;;;6.10;;
26277;SDS011;14000;52.056;8.510;2023-03-01T12:51:01;13.80;;;5.93;;
26277;SDS011;14000;52.056;8.510;2023-03-01T12:53:32;13.83;;;5.80;;
26277;SDS011;14000;52.056;8.510;2023-03-01T12:56:02;14.00;;;6.00;;
26277;SDS011;14000;52.056;8.510;2023-03-01T13:06:44;11.40;;;5.20;;
26277;SDS011;14000;52.056;8.510;2023-03-01T13:09:31;13.67;;;6.27;;
26277;SDS011;14000;52.056;8.510;2023-03-01T13:15:28;12.77;;;5.37;;
26277;SDS011;14000;52.056;8.510;2023-03-01T13:17:59;13.17;;;5.53;;
26277;SDS011;14000;52.056;8.510;2023-03-01T13:46:51;16.00;;;7.97;;
26277;SDS011;14000;52.056;8.510;2023-03-01T13:49:20;16.87;;;7.43;;
26277;SDS011;14000;52.056;8.510;2023-03-01T13:51:49;15.80;;;7.20;;
26277;SDS011;14000;52.056;8.510;2023-03-01T13:54:20;15.03;;;7.03;;
26277;SDS011;14000;52.056;8.510;2023-03-01T13:56:55;15.07;;;7.00;;
26277;SDS011;14000;52.056;8.510;2023-03-01T13:59:21;17.50;;;7.20;;
26277;SDS011;14000;52.056;8.510;2023-03-01T14:01:51;15.73;;;7.27;;
26277;SDS011;14000;52.056;8.510;2023-03-01T14:04:32;16.23;;;7.23;;
26277;SDS011;14000;52.056;8.510;2023-03-01T14:07:17;14.40;;;6.60;;
26277;SDS011;14000;52.056;8.510;2023-03-01T14:09:51;16.03;;;7.43;;
26277;SDS011;14000;52.056;8.510;2023-03-01T14:14:54;14.10;;;6.83;;
26277;SDS011;14000;52.056;8.510;2023-03-01T14:20:33;10.57;;;4.40;;
26277;SDS011;14000;52.056;8.510;2023-03-01T14:23:09;10.73;;;4.20;;
26277;SDS011;14000;52.056;8.510;2023-03-01T14:25:37;11.17;;;4.03;;
26277;SDS011;14000;52.056;8.510;2023-03-01T14:28:15;12.73;;;4.47;;
26277;SDS011;14000;52.056;8.510;2023-03-01T14:30:47;10.93;;;4.57;;
26277;SDS011;14000;52.056;8.510;2023-03-01T14:36:01;13.17;;;5.43;;
26277;SDS011;14000;52.056;8.510;2023-03-01T14:38:41;15.83;;;6.57;;
26277;SDS011;14000;52.056;8.510;2023-03-01T14:41:22;16.60;;;6.60;;
26277;SDS011;14000;52.056;8.510;2023-03-01T14:43:56;15.87;;;7.30;;
26277;SDS011;14000;52.056;8.510;2023-03-01T14:48:54;16.30;;;6.83;;
26277;SDS011;14000;52.056;8.510;2023-03-01T14:51:46;14.93;;;7.07;;
26277;SDS011;14000;52.056;8.510;2023-03-01T14:54:28;15.33;;;6.80;;
26277;SDS011;14000;52.056;8.510;2023-03-01T14:57:05;17.83;;;6.77;;
26277;SDS011;14000;52.056;8.510;2023-03-01T14:59:39;15.27;;;6.67;;
26277;SDS011;14000;52.056;8.510;2023-03-01T15:02:15;15.20;;;6.37;;
26277;SDS011;14000;52.056;8.510;2023-03-01T15:04:48;15.60;;;6.10;;
26277;SDS011;14000;52.056;8.510;2023-03-01T15:07:22;15.63;;;6.10;;
26277;SDS011;14000;52.056;8.510;2023-03-01T15:09:58;15.20;;;6.73;;
26277;SDS011;14000;52.056;8.510;2023-03-01T15:14:54;15.03;;;5.77;;
26277;SDS011;14000;52.056;8.510;2023-03-01T15:17:26;14.43;;;5.90;;
26277;SDS011;14000;52.056;8.510;2023-03-01T15:20:04;14.40;;;5.67;;
26277;SDS011;14000;52.056;8.510;2023-03-01T15:22:45;12.03;;;5.07;;
26277;SDS011;14000;52.056;8.510;2023-03-01T15:25:16;16.53;;;6.63;;
26277;SDS011;14000;52.056;8.510;2023-03-01T15:27:48;13.60;;;5.77;;
26277;SDS011;14000;52.056;8.510;2023-03-01T15:33:15;14.33;;;5.67;;
26277;SDS011;14000;52.056;8.510;2023-03-01T15:35:46;13.53;;;5.10;;
26277;SDS011;14000;52.056;8.510;2023-03-01T15:40:58;13.07;;;5.20;;
26277;SDS011;14000;52.056;8.510;2023-03-01T15:43:45;12.13;;;5.00;;
26277;SDS011;14000;52.056;8.510;2023-03-01T15:46:19;11.53;;;4.67;;
26277;SDS011;14000;52.056;8.510;2023-03-01T15:48:58;13.73;;;4.70;;
26277;SDS011;14000;52.056;8.510;2023-03-01T15:51:30;10.40;;;3.97;;
26277;SDS011;14000;52.056;8.510;2023-03-01T15:54:02;11.00;;;3.90;;
26277;SDS011;14000;52.056;8.510;2023-03-01T15:56:48;12.47;;;3.87;;
26277;SDS011;14000;52.056;8.510;2023-03-01T15:59:14;11.40;;;4.70;;
26277;SDS011;14000;52.056;8.510;2023-03-01T16:01:40;11.33;;;4.53;;
26277;SDS011;14000;52.056;8.510;2023-03-01T16:04:08;12.10;;;4.17;;
26277;SDS011;14000;52.056;8.510;2023-03-01T16:06:36;11.97;;;4.47;;
26277;SDS011;14000;52.056;8.510;2023-03-01T16:09:04;10.57;;;4.07;;
26277;SDS011;14000;52.056;8.510;2023-03-01T16:11:29;10.47;;;3.70;;
26277;SDS011;14000;52.056;8.510;2023-03-01T16:13:57;11.93;;;4.20;;
26277;SDS011;14000;52.056;8.510;2023-03-01T16:16:23;9.70;;;3.97;;
26277;SDS011;14000;52.056;8.510;2023-03-01T16:18:49;10.40;;;3.80;;
26277;SDS011;14000;52.056;8.510;2023-03-01T16:21:24;16.97;;;7.47;;
26277;SDS011;14000;52.056;8.510;2023-03-01T16:23:51;11.77;;;4.63;;
26277;SDS011;14000;52.056;8.510;2023-03-01T16:26:17;15.30;;;5.13;;
26277;SDS011;14000;52.056;8.510;2023-03-01T16:28:43;14.60;;;4.67;;
26277;SDS011;14000;52.056;8.510;2023-03-01T16:31:10;11.20;;;4.30;;
26277;SDS011;14000;52.056;8.510;2023-03-01T16:33:37;11.53;;;4.10;;
26277;SDS011;14000;52.056;8.510;2023-03-01T16:36:06;13.33;;;4.10;;
26277;SDS011;14000;52.056;8.510;2023-03-01T16:38:34;10.60;;;3.60;;
26277;SDS011;14000;52.056;8.510;2023-03-01T16:40:59;12.03;;;4.40;;
26277;SDS011;14000;52.056;8.510;2023-03-01T16:43:25;11.50;;;4.07;;
26277;SDS011;14000;52.056;8.510;2023-03-01T16:45:51;11.13;;;4.50;;
26277;SDS011;14000;52.056;8.510;2023-03-01T16:48:17;12.53;;;4.40;;
26277;SDS011;14000;52.056;8.510;2023-03-01T16:50:43;12.80;;;4.73;;
26277;SDS011;14000;52.056;8.510;2023-03-01T16:53:08;11.20;;;4.30;;
26277;SDS011;14000;52.056;8.510;2023-03-01T16:55:34;12.60;;;4.47;;
26277;SDS011;14000;52.056;8.510;2023-03-01T16:58:00;11.77;;;4.70;;
26277;SDS011;14000;52.056;8.510;2023-03-01T17:00:26;11.27;;;4.70;;
26277;SDS011;14000;52.056;8.510;2023-03-01T17:02:53;11.77;;;4.70;;
26277;SDS011;14000;52.056;8.510;2023-03-01T17:05:19;18.30;;;7.37;;